Madison, Florida
Current Conditions -  °F | °C
As of 5:05 PM on Monday 22 Dec 2014 (Local Time) from KVLD Reporting Station
Overcast Overcast  
Wind Chill: 59°   Ceiling: 300
Heat Index: 59°   Visibility: 10mi
Dew Point: 58°   Wind: 0mph
Humidity: 96%   Direction: NA
Pressure: 29.89"   Gusts: NA
Location:  30.47°N, 83.42°W
Report Text: KVLD 222205Z 00000KT 10SM BKN003 OVC015 15/14 A2989 RMK AO2 T01500144
Loading
Personal Weather Stations






























Interactive Weather Map New forecast layout! Learn more

10-Day Weather Forecast

Advertisements
Track Severe Weather on mobile